createdAt,value
2022-08-09T00:00:12.167Z,99260.00
2022-08-09T00:02:49.654Z,99257.00
2022-08-09T00:06:19.738Z,99257.00
2022-08-09T00:08:32.475Z,99256.00
2022-08-09T00:11:05.995Z,99265.00
2022-08-09T00:13:55.705Z,99262.00
2022-08-09T00:16:36.613Z,99254.00
2022-08-09T00:19:10.420Z,99255.00
2022-08-09T00:21:55.714Z,99265.00
2022-08-09T00:24:27.845Z,99261.00
2022-08-09T00:27:00.571Z,99265.00
2022-08-09T00:30:09.870Z,99258.00
2022-08-09T00:32:26.597Z,99260.00
2022-08-09T00:34:58.627Z,99256.00
2022-08-09T00:37:32.462Z,99259.00
2022-08-09T00:40:12.362Z,99257.00
2022-08-09T00:44:10.075Z,99259.00
2022-08-09T00:45:38.233Z,99260.00
2022-08-09T00:48:21.563Z,99258.00
2022-08-09T00:50:53.355Z,99255.00
2022-08-09T00:53:24.608Z,99255.00
2022-08-09T00:56:04.775Z,99255.00
2022-08-09T00:58:36.956Z,99251.00
2022-08-09T01:01:16.099Z,99259.00
2022-08-09T01:04:11.965Z,99245.00
2022-08-09T01:07:07.696Z,99260.00
2022-08-09T01:10:07.988Z,99257.00
2022-08-09T01:13:03.622Z,99264.00
2022-08-09T01:15:52.008Z,99258.00
2022-08-09T01:18:31.327Z,99259.00
2022-08-09T01:21:27.204Z,99261.00
2022-08-09T01:24:58.621Z,99266.00
2022-08-09T01:27:33.711Z,99267.00
2022-08-09T01:30:08.361Z,99269.00
2022-08-09T01:33:01.472Z,99273.00
2022-08-09T01:35:42.309Z,99276.00
2022-08-09T01:38:20.021Z,99272.00
2022-08-09T01:41:14.611Z,99278.00
2022-08-09T01:43:52.738Z,99271.00
2022-08-09T01:46:29.538Z,99278.00
2022-08-09T01:49:09.473Z,99283.00
2022-08-09T01:51:54.056Z,99286.00
2022-08-09T01:54:33.652Z,99279.00
2022-08-09T01:57:16.473Z,99281.00
2022-08-09T01:59:52.636Z,99285.00
2022-08-09T02:02:30.117Z,99279.00
2022-08-09T02:05:15.145Z,99283.00
2022-08-09T02:08:35.375Z,99283.00
2022-08-09T02:10:50.937Z,99282.00
2022-08-09T02:13:26.245Z,99285.00
2022-08-09T02:16:11.474Z,99290.00
2022-08-09T02:18:47.783Z,99293.00
2022-08-09T02:21:22.213Z,99294.00
2022-08-09T02:23:56.719Z,99315.00
2022-08-09T02:26:34.463Z,99300.00
2022-08-09T02:29:37.255Z,99304.00
2022-08-09T02:32:11.131Z,99294.00
2022-08-09T02:34:52.010Z,99291.00
2022-08-09T02:37:31.747Z,99304.00
2022-08-09T02:40:15.594Z,99300.00
2022-08-09T02:42:59.916Z,99298.00
2022-08-09T02:45:37.991Z,99292.00
2022-08-09T02:48:29.758Z,99285.00
2022-08-09T02:51:03.799Z,99314.00
2022-08-09T02:53:43.087Z,99289.00
2022-08-09T02:56:25.993Z,99287.00
2022-08-09T02:59:02.498Z,99290.00
2022-08-09T03:01:58.510Z,99289.00
2022-08-09T03:04:28.990Z,99300.00
2022-08-09T03:07:14.253Z,99294.00
2022-08-09T03:09:54.018Z,99288.00
2022-08-09T03:12:29.357Z,99291.00
2022-08-09T03:15:01.590Z,99289.00
2022-08-09T03:17:34.381Z,99295.00
2022-08-09T03:20:11.420Z,99289.00
2022-08-09T03:22:46.947Z,99292.00
2022-08-09T03:25:58.260Z,99288.00
2022-08-09T03:28:22.679Z,99296.00
2022-08-09T03:30:55.452Z,99307.00
2022-08-09T03:33:54.546Z,99295.00
2022-08-09T03:36:19.102Z,99304.00
2022-08-09T03:38:51.899Z,99307.00
2022-08-09T03:41:29.736Z,99304.00
2022-08-09T03:44:15.705Z,99318.00
2022-08-09T03:46:46.904Z,99314.00
2022-08-09T03:49:21.279Z,99318.00
2022-08-09T03:52:00.400Z,99315.00
2022-08-09T03:54:39.743Z,99307.00
2022-08-09T03:57:20.649Z,99314.00
2022-08-09T03:59:56.131Z,99312.00
2022-08-09T04:02:33.649Z,99321.00
2022-08-09T04:05:06.137Z,99312.00
2022-08-09T04:07:53.264Z,99307.00
2022-08-09T04:10:30.390Z,99318.00
2022-08-09T04:13:03.750Z,99313.00
2022-08-09T04:15:52.151Z,99318.00
2022-08-09T04:18:28.275Z,99320.00
2022-08-09T04:20:59.337Z,99315.00
2022-08-09T04:23:30.666Z,99321.00
2022-08-09T04:26:01.813Z,99330.00
2022-08-09T04:28:36.609Z,99327.00
2022-08-09T04:31:13.533Z,99338.00
2022-08-09T04:33:52.977Z,99334.00
2022-08-09T04:36:29.759Z,99338.00
2022-08-09T04:39:08.693Z,99340.00
2022-08-09T04:41:43.597Z,99337.00
2022-08-09T04:44:15.023Z,99344.00
2022-08-09T04:46:58.603Z,99349.00
2022-08-09T04:49:53.791Z,99344.00
2022-08-09T04:52:28.902Z,99360.00
2022-08-09T04:55:04.260Z,99355.00
2022-08-09T04:57:58.481Z,99368.00
2022-08-09T05:00:36.048Z,99371.00
2022-08-09T05:03:30.235Z,99368.00
2022-08-09T05:06:04.641Z,99374.00
2022-08-09T05:08:38.112Z,99366.00
2022-08-09T05:11:09.392Z,99375.00
2022-08-09T05:13:43.520Z,99372.00
2022-08-09T05:16:15.064Z,99371.00
2022-08-09T05:18:57.376Z,99378.00
2022-08-09T05:21:36.629Z,99377.00
2022-08-09T05:24:18.491Z,99367.00
2022-08-09T05:26:51.057Z,99378.00
2022-08-09T05:29:22.810Z,99384.00
2022-08-09T05:32:00.185Z,99384.00
2022-08-09T05:34:32.791Z,99387.00
2022-08-09T05:37:11.305Z,99386.00
2022-08-09T05:39:44.474Z,99387.00
2022-08-09T05:42:21.330Z,99380.00
2022-08-09T05:44:54.896Z,99383.00
2022-08-09T05:47:30.412Z,99386.00
2022-08-09T05:50:26.838Z,99384.00
2022-08-09T05:52:55.666Z,99390.00
2022-08-09T05:55:26.634Z,99392.00
2022-08-09T05:57:58.466Z,99382.00
2022-08-09T06:00:33.168Z,99384.00
2022-08-09T06:03:10.715Z,99398.00
2022-08-09T06:05:54.814Z,99403.00
2022-08-09T06:08:29.282Z,99399.00
2022-08-09T06:11:00.278Z,99400.00
2022-08-09T06:13:33.837Z,99406.00
2022-08-09T06:16:05.720Z,99410.00
2022-08-09T06:18:36.759Z,99410.00
2022-08-09T06:21:09.120Z,99402.00
2022-08-09T06:23:58.299Z,99407.00
2022-08-09T06:26:35.716Z,99404.00
2022-08-09T06:29:14.922Z,99412.00
2022-08-09T06:32:08.139Z,99416.00
2022-08-09T06:34:37.194Z,99410.00
2022-08-09T06:37:10.181Z,99412.00
2022-08-09T06:39:57.767Z,99400.00
2022-08-09T06:42:33.665Z,99404.00
2022-08-09T06:46:07.039Z,99411.00
2022-08-09T06:48:01.710Z,99416.00
2022-08-09T06:50:32.671Z,99408.00
2022-08-09T06:53:04.848Z,99410.00
2022-08-09T06:55:35.807Z,99434.00
2022-08-09T06:58:07.822Z,99411.00
2022-08-09T07:00:59.907Z,99414.00
2022-08-09T07:03:33.782Z,99416.00
2022-08-09T07:06:11.034Z,99410.00
2022-08-09T07:08:42.405Z,99416.00
2022-08-09T07:11:23.781Z,99418.00
2022-08-09T07:14:04.951Z,99431.00
2022-08-09T07:16:46.405Z,99425.00
2022-08-09T07:19:23.332Z,99429.00
2022-08-09T07:21:57.555Z,99430.00
2022-08-09T07:24:40.722Z,99431.00
2022-08-09T07:27:33.925Z,99436.00
2022-08-09T07:30:06.783Z,99430.00
2022-08-09T07:32:38.171Z,99429.00
2022-08-09T07:35:13.037Z,99431.00
2022-08-09T07:37:46.252Z,99447.00
2022-08-09T07:40:26.790Z,99437.00
2022-08-09T07:43:00.443Z,99439.00
2022-08-09T07:45:39.918Z,99432.00
2022-08-09T07:48:25.662Z,99435.00
2022-08-09T07:51:09.559Z,99435.00
2022-08-09T07:54:05.817Z,99433.00
2022-08-09T07:56:49.178Z,99428.00
2022-08-09T07:59:34.267Z,99426.00
2022-08-09T08:02:19.105Z,99432.00
2022-08-09T08:04:53.791Z,99422.00
2022-08-09T08:08:43.536Z,99429.00
2022-08-09T08:10:18.417Z,99425.00
2022-08-09T08:12:49.809Z,99431.00
2022-08-09T08:15:23.244Z,99434.00
2022-08-09T08:17:58.318Z,99432.00
2022-08-09T08:20:33.040Z,99438.00
2022-08-09T08:23:16.745Z,99435.00
2022-08-09T08:25:50.118Z,99444.00
2022-08-09T08:28:32.163Z,99437.00
2022-08-09T08:31:14.470Z,99440.00
2022-08-09T08:33:53.001Z,99433.00
2022-08-09T08:36:29.194Z,99427.00
2022-08-09T08:39:01.482Z,99430.00
2022-08-09T08:41:42.007Z,99435.00
2022-08-09T08:44:29.302Z,99431.00
2022-08-09T08:47:04.553Z,99436.00
2022-08-09T08:49:47.916Z,99443.00
2022-08-09T08:55:19.032Z,99440.00
2022-08-09T08:57:57.541Z,99446.00
2022-08-09T09:00:34.366Z,99444.00
2022-08-09T09:03:12.484Z,99444.00
2022-08-09T09:06:00.948Z,99448.00
2022-08-09T09:08:40.803Z,99442.00
2022-08-09T09:11:13.536Z,99437.00
2022-08-09T09:13:56.851Z,99440.00
2022-08-09T09:16:34.143Z,99442.00
2022-08-09T09:19:37.554Z,99430.00
2022-08-09T09:22:07.428Z,99426.00
2022-08-09T09:24:43.263Z,99426.00
2022-08-09T09:28:05.426Z,99422.00
2022-08-09T09:30:40.090Z,99423.00
2022-08-09T09:33:15.757Z,99423.00
2022-08-09T09:36:01.724Z,99421.00
2022-08-09T09:38:56.766Z,99409.00
2022-08-09T09:41:48.791Z,99412.00
2022-08-09T09:44:33.918Z,99424.00
2022-08-09T09:47:16.585Z,99412.00
2022-08-09T09:50:13.962Z,99414.00
2022-08-09T09:52:56.858Z,99404.00
2022-08-09T09:55:33.223Z,99414.00
2022-08-09T09:58:16.879Z,99402.00
2022-08-09T10:01:31.036Z,99407.00
2022-08-09T10:04:00.786Z,99397.00
2022-08-09T10:06:47.253Z,99406.00
2022-08-09T10:09:24.200Z,99391.00
2022-08-09T10:12:14.199Z,99391.00
2022-08-09T10:15:17.736Z,99404.00
2022-08-09T10:18:11.203Z,99414.00
2022-08-09T10:20:45.119Z,99406.00
2022-08-09T10:23:22.804Z,99392.00
2022-08-09T10:26:08.203Z,99404.00
2022-08-09T10:28:48.657Z,99396.00
2022-08-09T10:34:32.890Z,99383.00
2022-08-09T10:37:04.550Z,99387.00
2022-08-09T10:39:49.133Z,99393.00
2022-08-09T10:42:27.071Z,99390.00
2022-08-09T10:45:10.679Z,99382.00
2022-08-09T10:48:19.530Z,99386.00
2022-08-09T10:51:14.790Z,99375.00
2022-08-09T10:54:04.942Z,99373.00
2022-08-09T10:56:39.189Z,99377.00
2022-08-09T10:59:31.089Z,99383.00
2022-08-09T11:03:14.512Z,99368.00
2022-08-09T11:05:24.577Z,99391.00
2022-08-09T11:07:59.250Z,99377.00
2022-08-09T11:10:53.303Z,99385.00
2022-08-09T11:13:50.272Z,99385.00
2022-08-09T11:16:38.581Z,99388.00
2022-08-09T11:19:11.375Z,99382.00
2022-08-09T11:22:05.204Z,99373.00
2022-08-09T11:24:58.187Z,99371.00
2022-08-09T11:28:04.173Z,99371.00
2022-08-09T11:30:38.039Z,99378.00
2022-08-09T11:33:19.018Z,99383.00
2022-08-09T11:36:01.549Z,99384.00
2022-08-09T11:38:41.544Z,99370.00
2022-08-09T11:41:13.631Z,99365.00
2022-08-09T11:43:49.594Z,99371.00
2022-08-09T11:46:26.547Z,99375.00
2022-08-09T11:49:04.935Z,99361.00
2022-08-09T11:53:02.536Z,99364.00
2022-08-09T11:55:52.086Z,99351.00
2022-08-09T11:58:32.448Z,99355.00
2022-08-09T12:01:08.603Z,99355.00
2022-08-09T12:03:57.552Z,99347.00
2022-08-09T12:06:32.167Z,99348.00
2022-08-09T12:09:15.074Z,99342.00
2022-08-09T12:12:13.225Z,99342.00
2022-08-09T12:15:08.262Z,99344.00
2022-08-09T12:17:51.985Z,99341.00
2022-08-09T12:20:27.409Z,99337.00
2022-08-09T12:23:01.770Z,99334.00
2022-08-09T12:25:37.391Z,99339.00
2022-08-09T12:29:10.360Z,99336.00
2022-08-09T12:31:58.122Z,99345.00
2022-08-09T12:34:12.911Z,99335.00
2022-08-09T12:36:59.109Z,99327.00
2022-08-09T12:40:10.762Z,99322.00
2022-08-09T12:42:45.324Z,99329.00
2022-08-09T12:45:34.787Z,99330.00
2022-08-09T12:48:11.037Z,99328.00
2022-08-09T12:51:00.131Z,99326.00
2022-08-09T12:53:44.647Z,99328.00
2022-08-09T12:56:44.052Z,99332.00
2022-08-09T12:59:20.548Z,99325.00
2022-08-09T13:02:07.200Z,99319.00
2022-08-09T13:04:40.677Z,99325.00
2022-08-09T13:07:20.024Z,99315.00
2022-08-09T13:10:05.307Z,99326.00
2022-08-09T13:13:09.136Z,99317.00
2022-08-09T13:16:05.360Z,99300.00
2022-08-09T13:18:53.491Z,99307.00
2022-08-09T13:22:38.457Z,99299.00
2022-08-09T13:24:44.739Z,99299.00
2022-08-09T13:27:40.237Z,99289.00
2022-08-09T13:30:48.859Z,99293.00
2022-08-09T13:33:53.210Z,99294.00
2022-08-09T13:36:24.355Z,99292.00
2022-08-09T13:41:17.271Z,99293.00
2022-08-09T13:42:12.542Z,99284.00
2022-08-09T13:44:46.216Z,99288.00
2022-08-09T13:47:31.245Z,99292.00
2022-08-09T13:50:18.056Z,99299.00
2022-08-09T13:53:01.786Z,99285.00
2022-08-09T13:55:34.799Z,99289.00
2022-08-09T13:58:11.903Z,99280.00
2022-08-09T14:00:50.611Z,99281.00
2022-08-09T14:04:01.436Z,99283.00
2022-08-09T14:06:25.600Z,99287.00
2022-08-09T14:09:00.577Z,99281.00
2022-08-09T14:11:33.308Z,99289.00
2022-08-09T14:14:23.804Z,99279.00
2022-08-09T14:16:58.629Z,99282.00
2022-08-09T14:19:33.352Z,99272.00
2022-08-09T14:22:04.733Z,99285.00
2022-08-09T14:24:35.796Z,99274.00
2022-08-09T14:27:20.407Z,99275.00
2022-08-09T14:30:34.904Z,99279.00
2022-08-09T14:32:42.837Z,99266.00
2022-08-09T14:35:13.992Z,99272.00
2022-08-09T14:38:03.085Z,99261.00
2022-08-09T14:41:00.956Z,99268.00
2022-08-09T14:43:26.412Z,99272.00
2022-08-09T14:46:54.647Z,99268.00
2022-08-09T14:49:10.571Z,99271.00
2022-08-09T14:51:42.544Z,99267.00
2022-08-09T14:54:15.654Z,99273.00
2022-08-09T14:56:57.650Z,99270.00
2022-08-09T14:59:29.806Z,99266.00
2022-08-09T15:02:01.621Z,99265.00
2022-08-09T15:04:33.618Z,99262.00
2022-08-09T15:07:04.634Z,99266.00
2022-08-09T15:10:07.627Z,99259.00
2022-08-09T15:12:32.500Z,99260.00
2022-08-09T15:15:04.429Z,99259.00
2022-08-09T15:17:42.693Z,99253.00
2022-08-09T15:21:53.800Z,99259.00
2022-08-09T15:24:02.198Z,99251.00
2022-08-09T15:26:01.569Z,99265.00
2022-08-09T15:28:33.241Z,99253.00
2022-08-09T15:31:09.865Z,99250.00
2022-08-09T15:34:27.431Z,99255.00
2022-08-09T15:36:34.257Z,99254.00
2022-08-09T15:39:05.219Z,99244.00
2022-08-09T15:41:37.056Z,99244.00
2022-08-09T15:44:14.165Z,99243.00
2022-08-09T15:46:50.664Z,99238.00
2022-08-09T15:49:23.912Z,99253.00
2022-08-09T15:52:02.902Z,99235.00
2022-08-09T15:54:49.181Z,99242.00
2022-08-09T15:57:35.887Z,99234.00
2022-08-09T16:00:26.176Z,99241.00
2022-08-09T16:02:58.148Z,99237.00
2022-08-09T16:05:47.659Z,99249.00
2022-08-09T16:08:29.634Z,99240.00
2022-08-09T16:11:03.720Z,99240.00
2022-08-09T16:14:02.581Z,99243.00
2022-08-09T16:16:28.380Z,99243.00
2022-08-09T16:18:59.458Z,99240.00
2022-08-09T16:21:31.729Z,99240.00
2022-08-09T16:24:13.087Z,99242.00
2022-08-09T16:27:02.245Z,99236.00
2022-08-09T16:29:37.442Z,99233.00
2022-08-09T16:32:34.217Z,99236.00
2022-08-09T16:35:19.259Z,99234.00
2022-08-09T16:38:08.848Z,99238.00
2022-08-09T16:40:41.311Z,99237.00
2022-08-09T16:43:12.393Z,99247.00
2022-08-09T16:45:45.484Z,99236.00
2022-08-09T16:48:41.898Z,99234.00
2022-08-09T16:51:13.710Z,99237.00
2022-08-09T16:54:24.913Z,99240.00
2022-08-09T16:56:38.138Z,99235.00
2022-08-09T16:59:20.384Z,99242.00
2022-08-09T17:01:52.995Z,99251.00
2022-08-09T17:04:25.546Z,99243.00
2022-08-09T17:08:40.829Z,99247.00
2022-08-09T17:09:50.367Z,99240.00
2022-08-09T17:12:21.388Z,99243.00
2022-08-09T17:14:58.182Z,99240.00
2022-08-09T17:17:30.593Z,99245.00
2022-08-09T17:20:33.048Z,99248.00
2022-08-09T17:23:10.418Z,99246.00
2022-08-09T17:25:53.200Z,99241.00
2022-08-09T17:28:24.425Z,99249.00
2022-08-09T17:30:58.007Z,99248.00
2022-08-09T17:33:29.035Z,99244.00
2022-08-09T17:36:09.166Z,99247.00
2022-08-09T17:38:57.545Z,99251.00
2022-08-09T17:41:38.836Z,99239.00
2022-08-09T17:44:41.741Z,99254.00
2022-08-09T17:47:04.097Z,99256.00
2022-08-09T17:49:35.297Z,99252.00
2022-08-09T17:52:06.564Z,99261.00
2022-08-09T17:54:51.946Z,99264.00
2022-08-09T17:58:02.601Z,99258.00
2022-08-09T18:00:14.390Z,99262.00
2022-08-09T18:02:58.068Z,99267.00
2022-08-09T18:05:43.331Z,99264.00
2022-08-09T18:08:14.913Z,99277.00
2022-08-09T18:11:02.172Z,99269.00
2022-08-09T18:13:38.643Z,99268.00
2022-08-09T18:16:12.221Z,99269.00
2022-08-09T18:18:48.953Z,99270.00
2022-08-09T18:21:23.747Z,99275.00
2022-08-09T18:24:10.173Z,99272.00
2022-08-09T18:26:46.972Z,99276.00
2022-08-09T18:30:35.443Z,99278.00
2022-08-09T18:32:10.637Z,99295.00
2022-08-09T18:34:41.617Z,99277.00
2022-08-09T18:37:48.138Z,99277.00
2022-08-09T18:40:04.214Z,99288.00
2022-08-09T18:42:35.291Z,99283.00
2022-08-09T18:45:08.400Z,99285.00
2022-08-09T18:47:40.448Z,99293.00
2022-08-09T18:50:12.332Z,99295.00
2022-08-09T18:52:44.905Z,99307.00
2022-08-09T18:55:45.382Z,99300.00
2022-08-09T18:58:12.763Z,99307.00
2022-08-09T19:01:02.781Z,99306.00
2022-08-09T19:03:38.453Z,99310.00
2022-08-09T19:06:24.639Z,99316.00
2022-08-09T19:09:02.627Z,99319.00
2022-08-09T19:11:37.960Z,99322.00
2022-08-09T19:14:12.469Z,99320.00
2022-08-09T19:16:49.979Z,99326.00
2022-08-09T19:19:25.568Z,99327.00
2022-08-09T19:22:06.172Z,99330.00
2022-08-09T19:25:09.852Z,99331.00
2022-08-09T19:27:30.266Z,99330.00
2022-08-09T19:30:23.219Z,99333.00
2022-08-09T19:32:53.680Z,99338.00
2022-08-09T19:35:26.774Z,99344.00
2022-08-09T19:37:58.122Z,99333.00
2022-08-09T19:40:33.938Z,99334.00
2022-08-09T19:43:16.412Z,99340.00
2022-08-09T19:45:59.686Z,99336.00
2022-08-09T19:49:00.911Z,99338.00
2022-08-09T19:51:37.840Z,99331.00
2022-08-09T19:54:08.904Z,99341.00
2022-08-09T19:56:44.721Z,99347.00
2022-08-09T19:59:39.746Z,99342.00
2022-08-09T20:03:23.942Z,99342.00
2022-08-09T20:05:01.433Z,99340.00
2022-08-09T20:07:57.064Z,99348.00
2022-08-09T20:10:34.780Z,99341.00
2022-08-09T20:13:09.307Z,99357.00
2022-08-09T20:16:34.445Z,99340.00
2022-08-09T20:18:31.279Z,99345.00
2022-08-09T20:21:02.442Z,99342.00
2022-08-09T20:23:38.821Z,99338.00
2022-08-09T20:26:12.961Z,99351.00
2022-08-09T20:28:48.456Z,99351.00
2022-08-09T20:31:25.549Z,99348.00
2022-08-09T20:34:02.073Z,99343.00
2022-08-09T20:36:33.409Z,99344.00
2022-08-09T20:40:13.682Z,99348.00
2022-08-09T20:41:56.469Z,99346.00
2022-08-09T20:44:30.384Z,99342.00
2022-08-09T20:47:06.925Z,99349.00
2022-08-09T20:49:57.816Z,99350.00
2022-08-09T20:52:28.724Z,99347.00
2022-08-09T20:55:11.561Z,99352.00
2022-08-09T20:58:05.172Z,99347.00
2022-08-09T21:00:38.076Z,99357.00
2022-08-09T21:03:16.782Z,99353.00
2022-08-09T21:05:59.659Z,99356.00
2022-08-09T21:08:36.371Z,99363.00
2022-08-09T21:14:00.166Z,99368.00
2022-08-09T21:16:31.425Z,99363.00
2022-08-09T21:20:18.201Z,99359.00
2022-08-09T21:21:57.542Z,99367.00
2022-08-09T21:24:32.677Z,99363.00
2022-08-09T21:27:50.353Z,99367.00
2022-08-09T21:29:56.123Z,99372.00
2022-08-09T21:32:33.322Z,99365.00
2022-08-09T21:35:05.273Z,99368.00
2022-08-09T21:37:47.087Z,99365.00
2022-08-09T21:40:30.577Z,99360.00
2022-08-09T21:43:04.201Z,99369.00
2022-08-09T21:45:39.274Z,99374.00
2022-08-09T21:48:11.226Z,99371.00
2022-08-09T21:50:49.769Z,99366.00
2022-08-09T21:53:40.341Z,99370.00
2022-08-09T21:56:28.326Z,99369.00
2022-08-09T21:59:03.127Z,99365.00
2022-08-09T22:01:58.568Z,99367.00
2022-08-09T22:04:55.733Z,99372.00
2022-08-09T22:07:34.983Z,99375.00
2022-08-09T22:10:09.476Z,99388.00
2022-08-09T22:12:41.885Z,99371.00
2022-08-09T22:15:23.548Z,99374.00
2022-08-09T22:18:12.120Z,99362.00
2022-08-09T22:20:43.586Z,99367.00
2022-08-09T22:23:17.091Z,99364.00
2022-08-09T22:26:08.430Z,99368.00
2022-08-09T22:28:43.632Z,99371.00
2022-08-09T22:31:25.533Z,99368.00
2022-08-09T22:34:00.182Z,99379.00
2022-08-09T22:36:45.443Z,99360.00
2022-08-09T22:39:47.110Z,99369.00
2022-08-09T22:42:21.443Z,99362.00
2022-08-09T22:45:02.465Z,99367.00
2022-08-09T22:48:10.522Z,99375.00
2022-08-09T22:50:37.921Z,99369.00
2022-08-09T22:53:08.833Z,99366.00
2022-08-09T22:56:29.755Z,99376.00
2022-08-09T22:58:33.573Z,99386.00
2022-08-09T23:01:06.345Z,99370.00
2022-08-09T23:04:03.243Z,99373.00
2022-08-09T23:06:48.430Z,99385.00
2022-08-09T23:09:19.732Z,99376.00
2022-08-09T23:11:50.691Z,99370.00
2022-08-09T23:14:37.541Z,99372.00
2022-08-09T23:17:13.392Z,99373.00
2022-08-09T23:20:00.560Z,99369.00
2022-08-09T23:22:35.856Z,99366.00
2022-08-09T23:25:07.670Z,99358.00
2022-08-09T23:27:57.334Z,99362.00
2022-08-09T23:30:29.572Z,99363.00
2022-08-09T23:33:00.497Z,99354.00
2022-08-09T23:35:31.457Z,99358.00
2022-08-09T23:38:22.748Z,99359.00
2022-08-09T23:40:54.710Z,99349.00
2022-08-09T23:43:25.645Z,99358.00
2022-08-09T23:45:56.647Z,99349.00
2022-08-09T23:48:27.612Z,99348.00
2022-08-09T23:50:58.681Z,99355.00
2022-08-09T23:53:37.527Z,99370.00
2022-08-09T23:56:09.095Z,99360.00
2022-08-09T23:58:40.085Z,99362.00
